Bainbridge Island, WA

7:19 AM PDT on October 31, 2014 (GMT -0700)
Suquamish | Change Station
CLOSE
Current Station
Personal Weather Station
Location: Suquamish, WA
Elevation: 54 ft
Nearby Weather Stations

Elev 54 ft 47.72 °N, 122.56 °W | Updated 16 seconds ago

Rain
Rain
51.1 °F
Feels Like 51.1 °F
N
0.0
Wind Variable Wind from WNW
Gusts 1.0 mph

Today
High -- | Low -- °F
--% Chance of Precip.
Yesterday
High -- | Low -- °F
Precip. -- in
7:53 AM 5:53 PM
First Quarter, 55% visible
Pressure 29.69 in
Visibility 1.0 miles
Clouds Overcast 200 ft
Dew Point 51 °F
Humidity 99%
Rainfall 0.51 in
Snow Depth Not available.
UV 0 out of 12
Pollen .30 out of 12
Air Quality Not available.
Flu Activity Not available.
SPECI KPAE 311400Z 30004KT 1SM R16R/2200VP6000FT -RA BR OVC002 10/09 A2969 RMK AO2 P0000 T01000094

More Conditions Fewer Conditions

Pressure 29.69 in
Visibility 1.0 miles
Clouds Overcast 200 ft
Dew Point 51 °F
Humidity 99%
Rainfall 0.51 in
Snow Depth Not available.
UV 0 out of 12
Pollen .30 out of 12
Air Quality Not available.
Flu Activity Not available.
SPECI KPAE 311400Z 30004KT 1SM R16R/2200VP6000FT -RA BR OVC002 10/09 A2969 RMK AO2 P0000 T01000094

More Conditions Fewer Conditions

10-Day Weather Forecast

Almanac

Astronomy

Oct. 31, 2014 Rise Set
Actual Time
Civil Twilight
Nautical Twilight
Astronomical Twilight
Moon
Length of Visible Light
Length of Day
Tomorrow will be .
, % of the Moon is Illuminated

Today's Extremes

State Highs State Lows

Community

WunderPhotos

Upload Photos

1,766,617 photos uploaded!

WunderBlogs® & News

Nearby

Air Quality

  Air Quality AQ Index Pollutant
Not available.

Snow Depth

Station Depth Elevation

Earthquake Activity

City Distance Mag. Time & Date
Minimum magnitude displayed is 2.5.

Coastal Water Temperatures

Place Temperature

Nearby Weather Stations